Time;durP1;ratioP1;P1;durP2;ratioP2;P2;SDS_P1;SDS_P2;PMS_P1;PMS_P2;Temp;Humidity;BMP_temperature;BMP_pressure;BME280_temperature;BME280_humidity;BME280_pressure;Samples;Min_cycle;Max_cycle;Signal;HPM_P1;HPM_P2
2022/08/31 00:05:48;;;;;;;5.10;4.80;;;22.50;87.90;;;;;;5032577;28;20451;-67
2022/08/31 00:08:14;;;;;;;5.13;4.83;;;22.50;87.20;;;;;;5036209;28;20455;-70
2022/08/31 00:10:44;;;;;;;4.83;4.53;;;22.60;84.80;;;;;;5054186;28;20506;-67
2022/08/31 00:13:10;;;;;;;4.77;4.47;;;22.60;87.10;;;;;;5046436;28;20465;-67
2022/08/31 00:15:36;;;;;;;4.40;4.10;;;22.60;87.50;;;;;;5033324;28;20505;-67
2022/08/31 00:18:02;;;;;;;4.57;4.37;;;22.60;83.40;;;;;;5046871;28;20904;-69
2022/08/31 00:20:28;;;;;;;5.07;4.70;;;22.50;85.30;;;;;;5072147;28;20185;-67
2022/08/31 00:22:54;;;;;;;4.73;4.33;;;22.40;85.00;;;;;;5073944;28;21060;-68
2022/08/31 00:25:19;;;;;;;5.00;4.70;;;22.30;85.50;;;;;;5073126;28;20184;-67
2022/08/31 00:27:45;;;;;;;4.30;4.10;;;22.20;85.90;;;;;;5053903;28;20194;-68
2022/08/31 00:30:11;;;;;;;4.50;4.30;;;22.10;87.60;;;;;;5069989;28;20177;-67
2022/08/31 00:32:38;;;;;;;4.90;4.60;;;22.00;88.40;;;;;;5067120;28;20217;-67
2022/08/31 00:35:05;;;;;;;4.87;4.57;;;22.00;86.80;;;;;;5043550;28;20433;-67
2022/08/31 00:37:31;;;;;;;4.50;4.20;;;21.90;89.30;;;;;;5038702;28;20919;-67
2022/08/31 00:39:57;;;;;;;4.50;4.20;;;21.90;88.40;;;;;;5055691;28;20473;-66
2022/08/31 00:42:22;;;;;;;4.60;4.37;;;21.80;88.00;;;;;;5054251;28;20173;-71
2022/08/31 00:44:48;;;;;;;4.37;4.10;;;21.70;88.00;;;;;;5054774;28;20184;-67
2022/08/31 00:47:14;;;;;;;4.87;4.30;;;21.60;87.60;;;;;;5036328;28;20547;-71
2022/08/31 00:49:42;;;;;;;4.30;4.00;;;21.50;89.00;;;;;;5053870;28;20452;-68
2022/08/31 00:52:37;;;;;;;5.07;4.77;;;21.40;89.00;;;;;;5047795;28;20224;-67
2022/08/31 00:55:10;;;;;;;5.63;4.57;;;21.20;88.90;;;;;;5034060;28;20420;-68
2022/08/31 00:57:39;;;;;;;4.30;3.90;;;21.10;90.20;;;;;;5041669;28;20438;-68
2022/08/31 01:00:10;;;;;;;4.60;4.40;;;21.00;90.30;;;;;;5054410;28;20415;-68
2022/08/31 01:02:37;;;;;;;4.50;4.10;;;20.80;90.50;;;;;;5023599;28;20954;-68
2022/08/31 01:05:04;;;;;;;5.00;4.60;;;20.70;91.50;;;;;;5054308;28;20496;-68
2022/08/31 01:07:30;;;;;;;4.73;4.43;;;20.60;91.60;;;;;;5053174;28;20971;-68
2022/08/31 01:09:58;;;;;;;4.73;4.40;;;20.60;93.00;;;;;;5054174;28;20444;-67
2022/08/31 01:12:26;;;;;;;4.70;4.30;;;20.60;92.10;;;;;;5049727;28;20564;-67
2022/08/31 01:14:52;;;;;;;3.90;3.70;;;20.70;92.20;;;;;;5034226;28;20424;-67
2022/08/31 01:17:19;;;;;;;5.53;4.20;;;20.60;92.00;;;;;;5033404;28;20512;-70
2022/08/31 01:20:17;;;;;;;5.70;3.90;;;20.50;91.90;;;;;;5034180;28;20409;-67
2022/08/31 01:23:20;;;;;;;4.40;4.20;;;20.30;92.30;;;;;;4945098;28;20457;-67
2022/08/31 01:25:48;;;;;;;3.83;3.63;;;20.30;93.10;;;;;;4939296;29;20440;-67
2022/08/31 01:28:14;;;;;;;4.37;4.07;;;20.30;94.00;;;;;;5019204;28;20924;-67
2022/08/31 01:30:41;;;;;;;4.43;3.97;;;20.30;94.20;;;;;;5032735;28;20778;-67
2022/08/31 01:33:08;;;;;;;3.90;3.70;;;20.30;94.10;;;;;;5033838;28;20483;-68
2022/08/31 01:35:34;;;;;;;4.17;3.63;;;20.30;93.50;;;;;;5032102;28;20512;-67
2022/08/31 01:38:01;;;;;;;4.30;3.60;;;20.30;94.20;;;;;;5033295;28;20464;-67
2022/08/31 01:40:36;;;;;;;4.77;4.20;;;20.40;94.60;;;;;;5032933;28;20432;-68
2022/08/31 01:43:02;;;;;;;4.10;3.90;;;20.30;94.00;;;;;;5033091;28;20832;-67
2022/08/31 01:45:27;;;;;;;3.63;3.33;;;20.30;94.40;;;;;;5015441;28;20444;-68
2022/08/31 01:47:53;;;;;;;3.90;3.70;;;20.30;95.10;;;;;;5032400;28;20182;-68
2022/08/31 01:50:19;;;;;;;3.93;3.63;;;20.30;96.40;;;;;;5032562;28;20241;-71
2022/08/31 01:52:45;;;;;;;4.00;3.80;;;20.40;95.50;;;;;;5033328;28;20356;-67
2022/08/31 01:55:10;;;;;;;3.97;3.70;;;20.50;94.90;;;;;;5047388;28;20185;-67
2022/08/31 01:57:36;;;;;;;4.13;3.93;;;20.40;94.30;;;;;;5036238;28;20307;-68
2022/08/31 02:00:06;;;;;;;4.10;3.90;;;20.50;94.50;;;;;;5033151;28;20182;-67
2022/08/31 02:02:31;;;;;;;4.23;4.03;;;20.40;95.10;;;;;;5014895;28;20450;-68
2022/08/31 02:04:57;;;;;;;3.83;3.30;;;20.40;95.00;;;;;;5033234;28;20505;-67
2022/08/31 02:07:24;;;;;;;3.40;3.20;;;20.40;94.70;;;;;;5014627;28;20178;-68
2022/08/31 02:09:50;;;;;;;3.60;3.40;;;20.40;95.20;;;;;;5033120;28;20409;-68
2022/08/31 02:12:15;;;;;;;3.60;3.40;;;20.40;95.00;;;;;;5032485;28;20555;-68
2022/08/31 02:14:41;;;;;;;3.37;3.17;;;20.30;94.70;;;;;;5032216;28;20499;-68
2022/08/31 02:17:07;;;;;;;3.80;3.60;;;20.20;95.00;;;;;;5049645;28;20182;-68
2022/08/31 02:19:33;;;;;;;3.50;3.30;;;20.20;95.20;;;;;;5045442;28;20178;-68
2022/08/31 02:21:59;;;;;;;3.63;3.33;;;20.20;95.20;;;;;;5033007;28;20967;-68
2022/08/31 02:24:25;;;;;;;3.50;3.30;;;20.20;95.60;;;;;;5032047;28;20197;-68
2022/08/31 02:26:51;;;;;;;3.83;3.30;;;20.20;95.40;;;;;;5032528;28;20178;-67
2022/08/31 02:29:16;;;;;;;4.63;3.27;;;20.10;95.60;;;;;;5031544;28;20520;-67
2022/08/31 02:31:42;;;;;;;3.63;3.43;;;19.90;96.00;;;;;;5032211;28;20205;-68
2022/08/31 02:34:09;;;;;;;3.57;3.37;;;19.80;97.30;;;;;;5032538;28;20417;-67
2022/08/31 02:36:34;;;;;;;3.80;3.60;;;19.90;96.50;;;;;;5051808;28;20404;-67
2022/08/31 02:39:00;;;;;;;3.97;3.67;;;19.90;96.40;;;;;;5052274;28;20435;-67
2022/08/31 02:41:26;;;;;;;4.10;3.90;;;19.90;96.60;;;;;;5051724;28;20205;-68
2022/08/31 02:43:52;;;;;;;3.70;3.50;;;19.70;96.90;;;;;;5050255;28;20186;-68
2022/08/31 02:46:18;;;;;;;4.00;3.70;;;19.70;97.10;;;;;;5051206;28;20236;-67
2022/08/31 02:48:43;;;;;;;4.03;3.80;;;19.70;97.00;;;;;;5051241;28;20777;-67
2022/08/31 02:51:10;;;;;;;3.60;3.40;;;19.50;97.30;;;;;;5052584;28;20512;-68
2022/08/31 02:53:37;;;;;;;3.83;3.63;;;19.40;97.60;;;;;;5051493;28;20432;-67
2022/08/31 02:56:04;;;;;;;3.83;3.63;;;19.50;97.80;;;;;;5052394;28;20413;-67
2022/08/31 02:58:30;;;;;;;4.63;3.53;;;19.60;98.00;;;;;;5051436;28;20415;-68
2022/08/31 03:00:56;;;;;;;4.73;3.50;;;19.70;97.80;;;;;;5051952;28;20762;-68
2022/08/31 03:03:22;;;;;;;3.03;2.93;;;19.70;97.80;;;;;;5052137;28;20177;-70
2022/08/31 03:05:50;;;;;;;3.67;3.47;;;19.80;98.80;;;;;;5017375;28;20427;-67
2022/08/31 03:08:16;;;;;;;3.50;3.30;;;19.90;98.60;;;;;;5050812;28;20428;-67
2022/08/31 03:10:42;;;;;;;4.73;4.43;;;19.90;97.40;;;;;;5051620;28;20975;-67
2022/08/31 03:13:08;;;;;;;4.00;3.80;;;20.00;97.60;;;;;;5052090;28;20521;-67
2022/08/31 03:15:34;;;;;;;3.40;3.20;;;20.10;97.30;;;;;;5050063;28;20432;-67
2022/08/31 03:18:00;;;;;;;3.40;3.30;;;20.10;97.10;;;;;;5051887;28;20273;-67
2022/08/31 03:20:26;;;;;;;3.70;3.60;;;20.10;97.10;;;;;;5049374;28;20184;-71
2022/08/31 03:22:53;;;;;;;3.30;3.10;;;20.10;97.10;;;;;;5033995;28;20545;-67
2022/08/31 03:25:19;;;;;;;4.60;3.30;;;20.20;97.10;;;;;;5040694;28;20461;-67
2022/08/31 03:27:45;;;;;;;3.80;3.50;;;20.20;96.80;;;;;;5030813;28;21129;-68
2022/08/31 03:30:15;;;;;;;3.87;3.60;;;20.30;97.10;;;;;;5032086;28;20178;-67
2022/08/31 03:32:41;;;;;;;3.23;3.10;;;20.30;96.90;;;;;;5030732;28;20457;-67
2022/08/31 03:35:07;;;;;;;3.67;3.37;;;20.30;96.80;;;;;;5031745;28;20819;-67
2022/08/31 03:37:33;;;;;;;3.80;3.60;;;20.30;96.60;;;;;;5031191;28;20410;-67
2022/08/31 03:39:59;;;;;;;6.70;6.40;;;20.30;97.50;;;;;;5031966;28;20775;-67
2022/08/31 03:42:26;;;;;;;3.53;3.30;;;20.40;97.20;;;;;;5035586;28;20268;-71
2022/08/31 03:44:52;;;;;;;4.37;4.23;;;20.40;96.80;;;;;;5035784;28;20413;-67
2022/08/31 03:47:18;;;;;;;4.40;4.10;;;20.40;96.80;;;;;;5055866;28;20416;-67
2022/08/31 03:49:44;;;;;;;4.10;3.90;;;20.40;96.90;;;;;;5054508;28;20266;-67
2022/08/31 03:52:10;;;;;;;4.67;4.30;;;20.40;96.70;;;;;;5055345;28;20201;-67
2022/08/31 03:54:36;;;;;;;4.77;4.57;;;20.40;97.10;;;;;;5055102;28;20430;-67
2022/08/31 03:57:03;;;;;;;3.97;3.57;;;20.50;96.70;;;;;;5054398;28;20400;-67
2022/08/31 03:59:29;;;;;;;6.07;5.70;;;20.50;97.00;;;;;;4999654;28;20425;-68
2022/08/31 04:01:55;;;;;;;4.43;4.20;;;20.50;96.80;;;;;;5018083;28;20540;-67
2022/08/31 04:04:20;;;;;;;4.90;4.70;;;20.50;96.70;;;;;;5035127;28;20205;-67
2022/08/31 04:06:46;;;;;;;4.77;4.40;;;20.50;97.00;;;;;;5034735;28;20253;-67
2022/08/31 04:09:12;;;;;;;6.90;6.60;;;20.40;96.60;;;;;;5047497;28;20596;-67
2022/08/31 04:11:43;;;;;;;4.90;4.60;;;20.40;96.50;;;;;;5054763;28;20586;-67
2022/08/31 04:14:10;;;;;;;8.07;7.13;;;20.40;96.80;;;;;;5054380;28;20197;-67
2022/08/31 04:16:37;;;;;;;5.10;4.77;;;20.40;96.70;;;;;;5052820;28;20514;-67
2022/08/31 04:19:04;;;;;;;5.10;4.70;;;20.30;96.80;;;;;;5051639;28;20501;-67
2022/08/31 04:21:30;;;;;;;4.63;4.33;;;20.30;97.30;;;;;;5035411;28;20421;-71
2022/08/31 04:23:57;;;;;;;5.73;4.63;;;20.30;97.70;;;;;;5017193;28;20940;-67
2022/08/31 04:26:34;;;;;;;4.70;3.93;;;20.30;97.20;;;;;;5034857;28;20416;-67
2022/08/31 04:29:00;;;;;;;4.43;4.23;;;20.30;97.30;;;;;;5046792;28;20511;-67
2022/08/31 04:31:26;;;;;;;4.10;3.80;;;20.40;97.30;;;;;;5053826;28;20436;-69
2022/08/31 04:33:55;;;;;;;4.40;4.20;;;20.30;96.80;;;;;;5054612;28;20408;-67
2022/08/31 04:36:23;;;;;;;4.97;4.57;;;20.30;97.30;;;;;;5054794;28;20412;-67
2022/08/31 04:38:51;;;;;;;4.47;4.07;;;20.30;97.20;;;;;;5053690;28;20415;-67
2022/08/31 04:41:20;;;;;;;4.60;4.30;;;20.20;97.00;;;;;;5054780;28;20404;-67
2022/08/31 04:43:49;;;;;;;5.63;5.23;;;20.30;97.20;;;;;;5051926;28;20424;-67
2022/08/31 04:46:16;;;;;;;9.63;8.93;;;20.20;96.80;;;;;;5050399;28;20432;-67
2022/08/31 04:48:41;;;;;;;6.70;6.10;;;20.20;97.10;;;;;;5049486;28;20450;-67
2022/08/31 04:51:12;;;;;;;6.40;5.90;;;20.20;97.20;;;;;;5047886;28;20472;-67
2022/08/31 04:53:38;;;;;;;6.57;5.10;;;20.10;97.50;;;;;;5033152;28;20537;-68
2022/08/31 04:56:06;;;;;;;5.03;4.43;;;20.10;97.30;;;;;;5039537;28;20530;-67
2022/08/31 04:58:32;;;;;;;4.63;4.37;;;20.10;97.30;;;;;;5045859;28;20443;-71
2022/08/31 05:00:58;;;;;;;6.10;5.80;;;20.10;97.20;;;;;;5040296;28;20435;-67
2022/08/31 05:03:24;;;;;;;4.47;4.17;;;20.10;97.40;;;;;;5052662;28;20432;-67
2022/08/31 05:05:51;;;;;;;8.00;7.60;;;20.10;97.30;;;;;;5053478;28;20256;-67
2022/08/31 05:08:17;;;;;;;5.80;5.40;;;20.10;98.00;;;;;;5039580;28;20924;-67
2022/08/31 05:10:44;;;;;;;6.03;5.60;;;20.10;97.50;;;;;;5036569;28;20777;-67
2022/08/31 05:13:10;;;;;;;6.77;6.27;;;20.00;97.40;;;;;;5034236;28;20472;-67
2022/08/31 05:15:43;;;;;;;5.33;4.93;;;20.00;97.40;;;;;;5035902;28;20437;-68
2022/08/31 05:18:10;;;;;;;7.67;7.00;;;20.00;97.40;;;;;;5034203;28;20497;-67
2022/08/31 05:20:36;;;;;;;6.17;5.67;;;19.90;97.70;;;;;;5038505;28;20433;-67
2022/08/31 05:23:02;;;;;;;5.30;4.70;;;19.90;97.80;;;;;;5040842;28;20803;-66
2022/08/31 05:25:28;;;;;;;7.17;6.67;;;19.80;97.70;;;;;;5045610;28;20439;-67
2022/08/31 05:27:54;;;;;;;5.23;4.90;;;19.80;98.20;;;;;;5053411;28;20260;-67
2022/08/31 05:30:20;;;;;;;6.63;6.23;;;19.80;98.10;;;;;;5002118;28;20193;-67
2022/08/31 05:32:46;;;;;;;5.80;5.40;;;19.80;98.10;;;;;;5052894;28;20216;-67
2022/08/31 05:35:12;;;;;;;4.67;4.37;;;19.90;98.40;;;;;;5044483;28;20523;-67
2022/08/31 05:37:38;;;;;;;5.63;5.20;;;19.90;99.00;;;;;;5041598;28;20174;-68
2022/08/31 05:40:05;;;;;;;6.47;5.97;;;20.00;99.90;;;;;;5033400;28;20429;-69
2022/08/31 05:42:31;;;;;;;4.70;4.40;;;20.30;99.50;;;;;;5050575;28;20178;-70
2022/08/31 05:44:57;;;;;;;7.43;6.93;;;20.50;98.50;;;;;;5041800;28;20485;-68
2022/08/31 05:47:22;;;;;;;5.10;4.70;;;20.70;97.80;;;;;;5039221;28;20916;-68
2022/08/31 05:49:48;;;;;;;6.77;6.37;;;20.90;97.50;;;;;;5040513;28;20467;-68
2022/08/31 05:52:14;;;;;;;5.20;4.80;;;20.80;97.50;;;;;;5042371;28;20224;-68
2022/08/31 05:54:40;;;;;;;5.37;4.90;;;21.00;97.00;;;;;;5041365;28;20186;-69
2022/08/31 05:57:07;;;;;;;4.63;4.23;;;21.10;96.50;;;;;;5049598;28;20416;-68
2022/08/31 05:59:34;;;;;;;4.80;4.50;;;21.30;96.60;;;;;;5053209;28;20189;-72
2022/08/31 06:02:00;;;;;;;5.27;4.97;;;21.40;96.60;;;;;;5035145;28;20929;-68
2022/08/31 06:04:27;;;;;;;5.40;5.10;;;21.50;95.40;;;;;;5033858;28;20570;-68
2022/08/31 06:06:53;;;;;;;5.40;5.10;;;21.50;95.60;;;;;;5038124;28;20782;-68
2022/08/31 06:09:19;;;;;;;7.93;7.43;;;21.70;95.60;;;;;;5049662;28;20436;-68
2022/08/31 06:11:45;;;;;;;6.30;5.90;;;21.60;94.40;;;;;;5036486;28;20463;-69
2022/08/31 06:14:12;;;;;;;5.10;4.80;;;21.70;95.80;;;;;;5036243;28;20466;-68
2022/08/31 06:16:38;;;;;;;8.13;7.73;;;21.80;95.40;;;;;;5032103;28;20445;-69
2022/08/31 06:19:08;;;;;;;5.47;5.10;;;21.80;95.00;;;;;;5032909;28;20406;-69
2022/08/31 06:21:38;;;;;;;5.33;4.90;;;21.90;95.30;;;;;;5046799;28;20937;-71
2022/08/31 06:24:04;;;;;;;5.50;4.97;;;22.00;95.10;;;;;;5044926;28;20432;-68
2022/08/31 06:26:32;;;;;;;4.93;4.60;;;22.00;93.40;;;;;;5049130;28;20428;-68
2022/08/31 06:29:01;;;;;;;5.20;4.80;;;21.80;94.90;;;;;;5051699;28;20421;-68
2022/08/31 06:31:33;;;;;;;5.77;5.40;;;21.90;94.80;;;;;;5030098;28;20792;-69
2022/08/31 06:34:00;;;;;;;4.40;4.13;;;21.90;94.50;;;;;;5038481;28;21000;-69
2022/08/31 06:36:29;;;;;;;5.40;5.00;;;22.00;94.60;;;;;;5063271;28;20429;-68
2022/08/31 06:38:58;;;;;;;4.70;4.37;;;21.90;94.00;;;;;;5032389;28;20492;-68
2022/08/31 06:41:27;;;;;;;5.60;5.20;;;21.80;94.60;;;;;;5033064;28;20500;-68
2022/08/31 06:43:53;;;;;;;4.67;4.47;;;21.80;94.70;;;;;;5045023;28;20423;-68
2022/08/31 06:46:40;;;;;;;10.73;4.57;;;21.90;94.40;;;;;;5010299;28;20928;-68
2022/08/31 06:49:06;;;;;;;5.53;5.13;;;21.70;94.60;;;;;;5014926;28;20441;-68
2022/08/31 06:51:35;;;;;;;5.83;5.43;;;21.80;94.90;;;;;;5050484;28;20408;-68
2022/08/31 06:54:12;;;;;;;4.83;4.53;;;21.80;94.10;;;;;;5039825;28;20455;-68
2022/08/31 06:56:38;;;;;;;5.40;5.10;;;21.80;94.90;;;;;;5030074;28;20494;-68
2022/08/31 06:59:06;;;;;;;4.77;4.33;;;21.90;94.80;;;;;;5031565;28;20429;-68
2022/08/31 07:01:33;;;;;;;5.20;4.90;;;21.90;94.90;;;;;;5030497;28;20467;-68
2022/08/31 07:04:00;;;;;;;5.90;5.33;;;22.00;94.70;;;;;;5047248;28;20848;-69
2022/08/31 07:06:29;;;;;;;5.00;4.60;;;22.20;94.70;;;;;;5050222;28;20415;-68
2022/08/31 07:08:57;;;;;;;4.20;3.63;;;22.10;93.70;;;;;;5042951;28;20447;-68
2022/08/31 07:11:33;;;;;;;5.20;4.27;;;22.10;95.00;;;;;;5030019;28;20433;-68
2022/08/31 07:14:00;;;;;;;4.83;4.50;;;22.20;95.00;;;;;;4996385;28;20918;-65
2022/08/31 07:16:26;;;;;;;6.77;6.17;;;22.40;94.40;;;;;;5033808;28;20423;-62
2022/08/31 07:18:54;;;;;;;5.83;5.53;;;22.40;93.40;;;;;;5051936;28;20902;-62
2022/08/31 07:21:25;;;;;;;5.87;5.30;;;22.30;93.30;;;;;;5061647;28;20502;-62
2022/08/31 07:23:52;;;;;;;6.90;6.50;;;22.20;93.20;;;;;;5072272;28;20407;-62
2022/08/31 07:26:24;;;;;;;6.00;5.50;;;21.90;93.80;;;;;;5072212;28;20899;-61
2022/08/31 07:28:52;;;;;;;6.17;5.67;;;21.80;94.50;;;;;;5071681;28;20453;-62
2022/08/31 07:31:23;;;;;;;6.00;5.60;;;21.60;94.60;;;;;;5072374;28;20407;-62
2022/08/31 07:33:52;;;;;;;6.50;5.57;;;21.40;95.10;;;;;;5057446;28;20416;-62
2022/08/31 07:36:17;;;;;;;6.70;6.20;;;21.30;95.50;;;;;;5066130;28;20436;-62
2022/08/31 07:44:13;;;;;;;6.30;5.90;;;21.10;96.10;;;;;;5072436;28;20394;-62
2022/08/31 07:46:39;;;;;;;5.40;5.10;;;21.00;96.60;;;;;;5068794;28;20406;-63
2022/08/31 07:49:11;;;;;;;6.10;5.70;;;21.10;96.80;;;;;;5052343;28;20522;-62
2022/08/31 07:51:42;;;;;;;5.80;5.50;;;21.00;96.60;;;;;;5032295;28;20405;-62
2022/08/31 07:54:09;;;;;;;6.30;5.80;;;21.10;97.20;;;;;;5035203;28;20420;-62
2022/08/31 07:56:36;;;;;;;6.27;5.83;;;21.00;97.00;;;;;;5051667;28;20440;-62
2022/08/31 07:59:06;;;;;;;5.87;5.50;;;21.00;97.10;;;;;;5051493;28;20456;-62
2022/08/31 08:01:36;;;;;;;6.87;6.37;;;21.00;97.10;;;;;;5052038;28;20909;-62
2022/08/31 08:04:02;;;;;;;5.63;5.13;;;21.00;97.50;;;;;;5051449;28;20412;-62
2022/08/31 08:06:29;;;;;;;6.40;6.00;;;21.10;97.20;;;;;;5029567;28;20428;-62
2022/08/31 08:09:05;;;;;;;5.53;5.23;;;21.10;97.10;;;;;;5051306;28;20915;-62
2022/08/31 08:11:35;;;;;;;6.60;6.20;;;21.10;96.80;;;;;;5027114;28;20427;-62
2022/08/31 08:14:05;;;;;;;6.90;6.50;;;21.10;96.80;;;;;;5031383;28;20484;-62
2022/08/31 08:16:32;;;;;;;5.73;5.27;;;21.10;96.90;;;;;;5032080;28;20454;-62
2022/08/31 08:18:58;;;;;;;6.10;5.67;;;21.20;97.10;;;;;;4989188;28;20502;-62
2022/08/31 08:21:24;;;;;;;4.90;4.60;;;21.20;97.30;;;;;;4997498;28;21526;-64
2022/08/31 08:23:50;;;;;;;6.20;4.93;;;21.20;96.90;;;;;;4993812;28;20422;-62
2022/08/31 08:26:16;;;;;;;5.93;5.43;;;21.20;96.50;;;;;;5001491;28;20187;-62
2022/08/31 08:28:41;;;;;;;5.20;4.60;;;21.20;97.10;;;;;;4985880;28;20423;-63
2022/08/31 08:31:16;;;;;;;5.90;5.53;;;21.20;97.20;;;;;;5004477;28;20183;-62
2022/08/31 08:33:42;;;;;;;5.17;4.77;;;21.10;97.30;;;;;;4989527;28;20409;-66
2022/08/31 08:36:08;;;;;;;6.80;5.63;;;21.20;97.90;;;;;;4982998;28;20449;-62
2022/08/31 08:38:37;;;;;;;5.70;5.30;;;21.30;97.40;;;;;;5003398;28;20428;-62
2022/08/31 08:41:10;;;;;;;5.53;5.13;;;21.40;97.60;;;;;;5007194;28;20663;-63
2022/08/31 08:43:39;;;;;;;6.13;5.40;;;21.40;96.90;;;;;;4983907;28;20478;-62
2022/08/31 08:46:07;;;;;;;5.87;5.47;;;21.40;97.10;;;;;;4991532;28;20535;-63
2022/08/31 08:48:37;;;;;;;8.00;7.40;;;21.40;96.90;;;;;;4993869;28;20430;-63
2022/08/31 08:51:16;;;;;;;5.80;5.33;;;21.50;96.70;;;;;;5032574;28;20560;-63
2022/08/31 08:53:45;;;;;;;5.60;5.20;;;21.60;97.00;;;;;;5033913;28;20498;-67
2022/08/31 08:56:12;;;;;;;6.40;6.00;;;21.60;96.80;;;;;;5034606;28;20796;-63
2022/08/31 08:58:44;;;;;;;6.73;6.23;;;21.70;96.80;;;;;;5034896;28;20417;-62
2022/08/31 09:01:17;;;;;;;6.30;5.90;;;21.80;96.80;;;;;;5039310;28;20448;-63
2022/08/31 09:03:53;;;;;;;5.07;4.73;;;21.90;96.30;;;;;;5049198;28;20444;-63
2022/08/31 09:06:27;;;;;;;5.83;5.43;;;22.00;96.50;;;;;;5047789;28;20435;-63
2022/08/31 09:09:25;;;;;;;6.40;5.50;;;22.00;95.90;;;;;;5034183;28;20405;-62
2022/08/31 09:12:08;;;;;;;7.97;6.03;;;22.10;95.90;;;;;;5020704;28;20491;-63
2022/08/31 09:14:48;;;;;;;5.80;5.40;;;22.10;95.40;;;;;;4983380;28;20483;-63
2022/08/31 09:17:44;;;;;;;6.37;5.80;;;22.20;95.60;;;;;;5034586;28;20402;-63
2022/08/31 09:20:12;;;;;;;6.20;5.70;;;22.20;95.60;;;;;;5047947;28;20498;-63
2022/08/31 09:22:47;;;;;;;5.57;5.27;;;22.30;94.70;;;;;;5054394;28;20427;-63
2022/08/31 09:25:34;;;;;;;6.97;6.57;;;22.30;95.00;;;;;;5054348;28;20495;-63
2022/08/31 09:28:06;;;;;;;7.10;6.50;;;22.30;95.20;;;;;;5052910;28;20448;-63
2022/08/31 09:30:44;;;;;;;6.03;5.60;;;22.50;95.50;;;;;;5018945;28;20769;-63
2022/08/31 09:33:17;;;;;;;7.03;6.50;;;22.70;95.50;;;;;;5051668;28;20471;-63
2022/08/31 09:35:43;;;;;;;6.23;5.83;;;22.90;95.00;;;;;;5054129;28;20416;-68
2022/08/31 09:38:24;;;;;;;6.67;6.20;;;23.00;94.50;;;;;;5053901;28;20547;-63
2022/08/31 09:40:51;;;;;;;8.40;8.00;;;23.20;94.00;;;;;;5053350;28;20172;-63
2022/08/31 09:43:36;;;;;;;6.40;6.00;;;23.40;93.60;;;;;;5054234;28;20558;-63
2022/08/31 09:46:19;;;;;;;4.70;4.40;;;23.70;93.50;;;;;;5053436;28;20428;-63
2022/08/31 09:48:54;;;;;;;5.70;5.00;;;23.90;93.10;;;;;;5053270;28;20408;-64
2022/08/31 09:51:27;;;;;;;8.87;8.10;;;24.20;92.20;;;;;;5054032;28;20451;-63
2022/08/31 09:56:57;;;;;;;6.23;5.77;;;24.50;91.60;;;;;;5053906;28;20774;-63
2022/08/31 09:59:42;;;;;;;5.80;5.40;;;24.60;91.00;;;;;;5053741;28;20908;-63
2022/08/31 10:02:32;;;;;;;6.43;5.10;;;24.80;91.00;;;;;;5051199;28;20440;-63
2022/08/31 10:05:03;;;;;;;5.80;5.50;;;25.00;90.80;;;;;;5053020;28;20412;-63
2022/08/31 10:07:46;;;;;;;6.77;6.17;;;25.30;90.10;;;;;;5053636;28;20454;-63
2022/08/31 10:10:21;;;;;;;9.93;9.37;;;25.50;88.90;;;;;;5053530;28;20527;-63
2022/08/31 10:12:55;;;;;;;9.70;9.03;;;25.70;89.00;;;;;;5052828;28;20986;-63
2022/08/31 10:15:29;;;;;;;6.40;5.90;;;25.90;87.20;;;;;;5053523;28;20400;-63
2022/08/31 10:18:14;;;;;;;9.17;8.40;;;25.90;85.20;;;;;;5052811;28;20439;-63
2022/08/31 10:20:47;;;;;;;6.40;5.90;;;25.80;85.30;;;;;;5034970;28;20420;-63
2022/08/31 10:23:24;;;;;;;10.60;9.80;;;25.90;85.70;;;;;;5033124;28;20455;-63
2022/08/31 10:25:57;;;;;;;8.77;8.17;;;26.00;85.50;;;;;;5052690;28;20488;-63
2022/08/31 10:28:43;;;;;;;8.07;7.60;;;26.00;85.60;;;;;;5051315;28;20460;-63
2022/08/31 10:31:19;;;;;;;6.20;5.67;;;25.90;84.60;;;;;;5051974;28;20467;-63
2022/08/31 10:37:06;;;;;;;8.20;7.70;;;26.20;83.40;;;;;;5052385;28;20444;-63
2022/08/31 10:39:43;;;;;;;6.77;6.13;;;26.40;84.30;;;;;;5053086;28;20426;-62
2022/08/31 10:42:56;;;;;;;7.17;6.37;;;26.60;83.70;;;;;;5000671;28;20481;-62
2022/08/31 10:45:24;;;;;;;6.23;5.83;;;26.80;81.60;;;;;;4952631;29;20460;-62
2022/08/31 10:47:53;;;;;;;8.97;8.13;;;26.80;80.80;;;;;;5040708;28;20511;-63
2022/08/31 10:50:39;;;;;;;8.90;7.13;;;26.90;81.10;;;;;;5051765;28;20959;-62
2022/08/31 10:53:07;;;;;;;9.50;7.13;;;27.00;80.70;;;;;;5052116;28;20462;-62
2022/08/31 10:55:41;;;;;;;8.53;7.73;;;26.80;79.60;;;;;;5000962;28;20428;-62
2022/08/31 10:58:06;;;;;;;8.00;7.13;;;26.80;81.20;;;;;;5022361;28;20441;-62
2022/08/31 11:00:55;;;;;;;7.90;6.50;;;26.70;80.50;;;;;;4991009;28;20417;-62
2022/08/31 11:03:32;;;;;;;6.77;6.37;;;26.70;79.90;;;;;;4991129;28;20515;-62
2022/08/31 11:06:02;;;;;;;7.60;7.10;;;26.70;79.80;;;;;;4990486;28;20423;-62
2022/08/31 11:08:28;;;;;;;6.87;6.37;;;26.60;80.60;;;;;;4991064;28;20427;-62
2022/08/31 11:10:56;;;;;;;5.73;5.33;;;26.50;80.80;;;;;;4990296;28;20497;-62
2022/08/31 11:13:34;;;;;;;9.83;9.17;;;26.50;82.70;;;;;;4990845;28;20464;-62
2022/08/31 11:16:15;;;;;;;6.90;6.40;;;26.50;81.80;;;;;;4990254;28;20564;-62
2022/08/31 11:18:49;;;;;;;6.50;6.10;;;26.50;81.20;;;;;;4990856;28;20415;-62
2022/08/31 11:21:34;;;;;;;5.97;5.60;;;26.40;81.80;;;;;;4991138;28;20921;-62
2022/08/31 11:24:11;;;;;;;6.43;5.83;;;26.30;81.20;;;;;;4974116;28;20418;-62
2022/08/31 11:26:46;;;;;;;6.70;6.33;;;26.20;81.40;;;;;;4990851;28;20429;-62
2022/08/31 11:29:28;;;;;;;7.00;6.50;;;26.20;82.00;;;;;;4989461;28;20446;-62
2022/08/31 11:32:09;;;;;;;7.33;6.50;;;26.20;81.60;;;;;;5017316;28;20468;-62
2022/08/31 11:34:46;;;;;;;6.37;5.87;;;26.20;80.90;;;;;;5032611;28;20429;-62
2022/08/31 11:37:32;;;;;;;6.30;5.90;;;26.20;81.00;;;;;;5031805;28;20443;-62
2022/08/31 11:39:58;;;;;;;6.57;6.07;;;26.10;81.00;;;;;;5031711;28;20787;-62
2022/08/31 11:42:26;;;;;;;6.23;5.83;;;26.00;81.30;;;;;;5032321;28;20421;-62
2022/08/31 11:45:13;;;;;;;6.17;5.57;;;25.90;82.10;;;;;;5031722;28;20555;-63
2022/08/31 11:47:43;;;;;;;7.03;6.53;;;25.80;82.30;;;;;;5032406;28;20824;-62
2022/08/31 11:50:08;;;;;;;6.77;5.90;;;25.80;82.00;;;;;;5031120;28;20464;-62
2022/08/31 11:52:47;;;;;;;8.67;8.17;;;25.70;82.90;;;;;;5032168;28;20457;-62
2022/08/31 11:55:27;;;;;;;6.17;5.80;;;25.60;82.10;;;;;;5031642;28;20229;-62
2022/08/31 11:58:10;;;;;;;6.40;5.90;;;25.60;82.50;;;;;;5041715;28;20471;-63
2022/08/31 12:00:44;;;;;;;6.40;6.00;;;25.50;82.50;;;;;;5052072;28;20534;-62
2022/08/31 12:03:30;;;;;;;8.80;8.27;;;25.40;83.40;;;;;;5055295;28;20418;-62
2022/08/31 12:05:56;;;;;;;6.20;5.80;;;25.30;83.50;;;;;;5055252;28;20442;-62
2022/08/31 12:08:31;;;;;;;6.57;6.13;;;25.30;82.90;;;;;;5055833;28;20762;-62
2022/08/31 12:11:28;;;;;;;11.10;9.90;;;25.20;83.80;;;;;;5055262;28;20408;-62
2022/08/31 12:14:07;;;;;;;6.73;6.33;;;25.20;83.70;;;;;;5016552;28;20460;-62
2022/08/31 12:16:46;;;;;;;6.73;6.23;;;25.10;84.50;;;;;;5037756;28;20412;-62
2022/08/31 12:26:02;;;;;;;6.97;6.43;;;25.10;84.10;;;;;;5055573;28;20892;-62
2022/08/31 12:28:42;;;;;;;6.93;6.43;;;25.10;84.80;;;;;;5039285;28;20445;-63
2022/08/31 12:31:14;;;;;;;6.97;6.03;;;25.20;83.70;;;;;;5034744;28;20503;-63
2022/08/31 12:34:20;;;;;;;6.90;6.40;;;25.30;84.40;;;;;;5034743;28;21001;-63
2022/08/31 12:36:45;;;;;;;5.73;5.37;;;25.40;82.40;;;;;;4954829;29;20944;-63
2022/08/31 12:39:19;;;;;;;6.10;5.70;;;25.40;82.80;;;;;;5017908;28;20445;-63
2022/08/31 12:41:57;;;;;;;6.87;6.17;;;25.40;83.40;;;;;;5017681;28;20171;-62
2022/08/31 12:44:37;;;;;;;6.63;6.23;;;25.60;84.40;;;;;;5035405;28;20810;-63
2022/08/31 12:47:46;;;;;;;7.07;6.67;;;25.80;81.90;;;;;;5050128;28;20432;-63
2022/08/31 12:50:44;;;;;;;7.70;7.20;;;26.00;80.10;;;;;;5055482;28;20562;-63
2022/08/31 12:53:50;;;;;;;5.90;5.50;;;26.20;79.70;;;;;;5074459;28;20450;-63
2022/08/31 12:56:27;;;;;;;8.30;7.70;;;26.40;79.50;;;;;;5009112;28;20443;-63
2022/08/31 12:59:19;;;;;;;7.90;7.30;;;26.60;78.00;;;;;;5074900;28;20498;-63
2022/08/31 13:01:48;;;;;;;7.00;6.70;;;26.70;77.70;;;;;;5073258;28;20395;-63
2022/08/31 13:04:15;;;;;;;4.70;4.40;;;26.70;76.90;;;;;;5054181;28;20453;-63
2022/08/31 13:06:43;;;;;;;8.30;7.90;;;26.60;76.10;;;;;;5054788;28;20854;-63
2022/08/31 13:09:23;;;;;;;6.03;5.53;;;26.60;76.20;;;;;;5060235;28;20430;-63
2022/08/31 13:11:51;;;;;;;7.67;7.27;;;26.40;76.00;;;;;;5074686;28;20399;-63
2022/08/31 13:14:26;;;;;;;7.20;6.70;;;26.40;76.30;;;;;;5073202;28;20407;-62
2022/08/31 13:16:54;;;;;;;5.23;4.93;;;26.30;76.00;;;;;;5074325;28;20419;-63
2022/08/31 13:19:32;;;;;;;5.30;5.00;;;26.20;77.20;;;;;;5073980;28;20423;-63
2022/08/31 13:22:04;;;;;;;7.30;6.90;;;26.20;76.80;;;;;;5073729;28;20441;-63
2022/08/31 13:24:40;;;;;;;5.57;5.27;;;26.20;75.40;;;;;;5074214;28;20415;-63
2022/08/31 13:27:17;;;;;;;6.03;5.37;;;26.30;76.50;;;;;;5071757;28;20513;-63